Time;durP1;ratioP1;P1;durP2;ratioP2;P2;SDS_P1;SDS_P2;PMS_P1;PMS_P2;Temp;Humidity;BMP_temperature;BMP_pressure;BME280_temperature;BME280_humidity;BME280_pressure;Samples;Min_cycle;Max_cycle;Signal;HPM_P1;HPM_P2
2023/06/18 00:00:35;;;;;;;18.98;16.70;;;17.90;99.90;;;;;;5072355;28;20586;-83
2023/06/18 00:03:01;;;;;;;18.65;16.83;;;17.80;99.90;;;;;;5056222;28;20048;-83
2023/06/18 00:05:27;;;;;;;19.17;17.30;;;17.80;99.90;;;;;;5072543;28;20040;-84
2023/06/18 00:07:53;;;;;;;20.73;18.63;;;17.80;99.90;;;;;;5073860;28;20072;-83
2023/06/18 00:10:19;;;;;;;20.08;17.95;;;17.80;99.90;;;;;;5072540;28;20041;-84
2023/06/18 00:12:44;;;;;;;19.25;17.20;;;17.70;99.90;;;;;;5072600;28;20041;-83
2023/06/18 00:15:10;;;;;;;20.33;18.20;;;17.70;99.90;;;;;;5072780;28;20090;-83
2023/06/18 00:17:36;;;;;;;20.02;17.42;;;17.70;99.90;;;;;;5072338;28;20056;-83
2023/06/18 00:20:03;;;;;;;18.85;16.95;;;17.60;99.90;;;;;;5055338;28;20124;-83
2023/06/18 00:22:28;;;;;;;17.90;16.00;;;17.60;99.90;;;;;;5055832;28;20043;-83
2023/06/18 00:24:54;;;;;;;17.85;16.00;;;17.50;99.90;;;;;;5055623;28;20127;-83
2023/06/18 00:27:20;;;;;;;19.98;17.92;;;17.50;99.90;;;;;;5055391;28;20028;-83
2023/06/18 00:29:47;;;;;;;20.90;18.80;;;17.50;99.90;;;;;;5055291;28;20090;-83
2023/06/18 00:32:15;;;;;;;19.33;13.02;;;17.40;99.90;;;;;;5071916;28;20037;-83
2023/06/18 00:34:42;;;;;;;19.10;17.10;;;17.30;99.90;;;;;;5055465;28;20048;-83
2023/06/18 00:37:09;;;;;;;22.75;20.27;;;17.30;99.90;;;;;;5072322;28;20040;-83
2023/06/18 00:39:37;;;;;;;20.77;18.67;;;17.30;99.90;;;;;;5071761;28;20043;-83
2023/06/18 00:42:05;;;;;;;19.35;17.35;;;17.30;99.90;;;;;;5055535;28;20521;-83
2023/06/18 00:44:31;;;;;;;21.38;18.67;;;17.30;99.90;;;;;;5055253;28;20040;-83
2023/06/18 00:46:59;;;;;;;22.45;20.10;;;17.20;99.90;;;;;;5071747;28;20414;-83
2023/06/18 00:49:27;;;;;;;20.58;12.00;;;17.20;99.90;;;;;;5055234;28;20040;-83
2023/06/18 00:51:52;;;;;;;21.42;19.23;;;17.10;99.90;;;;;;5055032;28;20044;-83
2023/06/18 00:54:18;;;;;;;23.73;21.33;;;17.00;99.90;;;;;;5071690;28;20037;-83
2023/06/18 00:56:51;;;;;;;22.90;20.60;;;17.10;99.90;;;;;;5070381;28;20043;-84
2023/06/18 00:59:21;;;;;;;;;;;17.10;99.90;;;;;;5071822;28;20051;-83
2023/06/18 01:01:48;;;;;;;25.15;22.42;;;17.00;99.90;;;;;;5071202;28;19965;-83
2023/06/18 01:04:14;;;;;;;21.48;19.25;;;17.00;99.90;;;;;;5071454;28;20685;-83
2023/06/18 01:06:40;;;;;;;24.67;22.17;;;17.00;99.90;;;;;;5071442;28;20032;-84
2023/06/18 01:09:07;;;;;;;19.65;14.10;;;17.00;99.90;;;;;;5071473;28;20040;-83
2023/06/18 01:11:37;;;;;;;26.02;23.42;;;16.90;99.90;;;;;;5070939;28;20433;-83
2023/06/18 01:14:09;;;;;;;22.80;20.38;;;16.90;99.90;;;;;;5071219;28;20051;-83
2023/06/18 01:16:37;;;;;;;20.40;14.80;;;16.90;99.90;;;;;;5071519;28;20045;-83
2023/06/18 01:19:05;;;;;;;25.45;22.85;;;16.80;99.90;;;;;;5071265;28;20083;-83
2023/06/18 01:21:35;;;;;;;26.10;23.40;;;16.80;99.90;;;;;;5070813;28;20036;-83
2023/06/18 01:24:11;;;;;;;22.00;19.75;;;16.80;99.90;;;;;;5071236;28;20075;-83
2023/06/18 01:26:40;;;;;;;23.27;20.98;;;16.80;99.90;;;;;;5054141;28;20040;-83
2023/06/18 01:29:10;;;;;;;23.83;21.38;;;16.80;99.90;;;;;;5071113;28;20052;-83
2023/06/18 01:31:36;;;;;;;23.52;21.15;;;16.70;99.90;;;;;;5053988;28;20043;-83
2023/06/18 01:34:04;;;;;;;20.17;17.75;;;16.70;99.90;;;;;;5071256;28;20036;-83
2023/06/18 01:36:37;;;;;;;18.90;12.43;;;16.70;99.90;;;;;;5071095;28;20047;-83
2023/06/18 01:39:33;;;;;;;23.23;21.00;;;16.60;99.90;;;;;;5070779;28;20047;-83
2023/06/18 01:42:16;;;;;;;25.73;23.17;;;16.60;99.90;;;;;;5071125;28;20040;-83
2023/06/18 01:44:46;;;;;;;23.60;21.27;;;16.60;99.90;;;;;;5070712;28;20036;-83
2023/06/18 01:47:13;;;;;;;24.60;22.10;;;16.50;99.90;;;;;;5054150;28;20136;-83
2023/06/18 01:49:42;;;;;;;25.17;22.58;;;16.50;99.90;;;;;;5070598;28;20371;-83
2023/06/18 01:52:08;;;;;;;25.42;22.92;;;16.50;99.90;;;;;;5070681;28;20044;-83
2023/06/18 01:54:36;;;;;;;22.10;14.55;;;16.60;99.90;;;;;;5053950;28;20050;-83
2023/06/18 01:57:03;;;;;;;24.13;21.75;;;16.40;99.90;;;;;;5053938;28;20052;-83
2023/06/18 01:59:29;;;;;;;24.77;21.52;;;16.40;99.90;;;;;;5070535;28;20090;-83
2023/06/18 02:01:55;;;;;;;21.38;19.13;;;16.40;99.90;;;;;;5070696;28;20036;-83
2023/06/18 02:04:21;;;;;;;19.90;13.02;;;16.40;99.90;;;;;;5070469;28;20094;-83
2023/06/18 02:06:47;;;;;;;15.93;11.70;;;16.30;99.90;;;;;;5070240;28;20037;-83
2023/06/18 02:09:12;;;;;;;13.85;12.45;;;16.10;99.90;;;;;;5070761;28;20041;-83
2023/06/18 02:11:38;;;;;;;14.40;12.43;;;16.10;99.90;;;;;;5070302;28;20037;-83
2023/06/18 02:14:03;;;;;;;12.35;8.30;;;16.00;99.90;;;;;;5053705;28;20677;-83
2023/06/18 02:16:29;;;;;;;14.00;12.48;;;15.90;99.90;;;;;;5053895;28;20051;-83
2023/06/18 02:18:54;;;;;;;13.05;11.75;;;15.90;99.90;;;;;;5053715;28;20525;-83
2023/06/18 02:21:20;;;;;;;12.05;10.20;;;15.80;99.90;;;;;;5070004;28;20059;-83
2023/06/18 02:23:46;;;;;;;10.50;6.97;;;15.80;99.90;;;;;;5053578;28;20051;-83
2023/06/18 02:26:13;;;;;;;10.73;8.38;;;15.60;99.90;;;;;;5070044;28;20128;-83
2023/06/18 02:28:39;;;;;;;10.45;9.00;;;15.60;99.90;;;;;;5070298;28;20041;-83
2023/06/18 02:31:06;;;;;;;10.38;6.20;;;15.60;99.90;;;;;;5069855;28;20039;-83
2023/06/18 02:33:32;;;;;;;14.30;12.10;;;15.50;99.90;;;;;;5070206;28;20542;-83
2023/06/18 02:35:58;;;;;;;12.75;10.60;;;15.60;99.90;;;;;;5070215;28;20135;-83
2023/06/18 02:38:23;;;;;;;16.33;9.88;;;15.60;99.90;;;;;;5070333;28;20127;-83
2023/06/18 02:40:49;;;;;;;11.85;6.15;;;15.50;99.90;;;;;;5069821;28;20498;-83
2023/06/18 02:43:14;;;;;;;11.32;8.55;;;15.40;99.90;;;;;;5070045;28;20072;-83
2023/06/18 02:45:40;;;;;;;10.20;7.22;;;15.40;99.90;;;;;;5070090;28;20037;-83
2023/06/18 02:48:06;;;;;;;15.32;7.15;;;15.40;99.90;;;;;;5053287;28;20041;-83
2023/06/18 02:50:31;;;;;;;18.23;15.30;;;15.40;99.90;;;;;;5069787;28;20501;-83
2023/06/18 02:52:57;;;;;;;16.75;10.50;;;15.40;99.90;;;;;;5070066;28;20170;-83
2023/06/18 02:55:23;;;;;;;18.60;16.58;;;15.40;99.90;;;;;;5052986;28;20135;-83
2023/06/18 02:57:49;;;;;;;20.05;17.95;;;15.40;99.90;;;;;;5070029;28;20040;-83
2023/06/18 03:00:14;;;;;;;13.07;11.02;;;15.50;99.90;;;;;;5069647;28;20044;-83
2023/06/18 03:02:41;;;;;;;15.18;12.13;;;15.40;99.90;;;;;;5069569;28;20178;-83
2023/06/18 03:05:08;;;;;;;8.10;4.35;;;15.30;99.90;;;;;;5069765;28;20093;-83
2023/06/18 03:07:34;;;;;;;8.88;4.57;;;15.10;99.90;;;;;;5069964;28;20040;-83
2023/06/18 03:10:00;;;;;;;9.68;6.90;;;14.80;99.90;;;;;;5069621;28;20041;-83
2023/06/18 03:12:26;;;;;;;9.45;7.03;;;14.70;99.90;;;;;;5069663;28;20059;-83
2023/06/18 03:14:51;;;;;;;9.43;6.82;;;14.70;99.90;;;;;;5053092;28;20040;-83
2023/06/18 03:17:17;;;;;;;9.50;5.22;;;14.70;99.90;;;;;;5053151;28;20040;-83
2023/06/18 03:19:42;;;;;;;11.25;4.78;;;14.70;99.90;;;;;;5071451;28;20032;-83
2023/06/18 03:22:08;;;;;;;9.48;5.13;;;14.60;99.90;;;;;;5073463;28;20508;-83
2023/06/18 03:24:34;;;;;;;11.88;7.05;;;14.60;99.90;;;;;;5073379;28;20105;-83
2023/06/18 03:27:00;;;;;;;14.40;11.75;;;14.60;99.90;;;;;;5073084;28;20068;-83
2023/06/18 03:29:28;;;;;;;13.98;12.55;;;14.60;99.90;;;;;;5056587;28;20033;-83
2023/06/18 03:31:54;;;;;;;13.45;12.05;;;14.70;99.90;;;;;;5073210;28;20093;-83
2023/06/18 03:34:22;;;;;;;14.10;12.60;;;14.80;99.90;;;;;;5056890;28;20119;-83
2023/06/18 03:36:49;;;;;;;14.73;8.43;;;14.80;99.90;;;;;;5073192;28;20041;-83
2023/06/18 03:39:15;;;;;;;16.65;10.40;;;14.80;99.90;;;;;;5056591;28;20037;-83
2023/06/18 03:41:41;;;;;;;18.10;16.30;;;14.80;99.90;;;;;;5072851;28;20040;-83
2023/06/18 03:44:07;;;;;;;20.83;18.73;;;14.80;99.90;;;;;;5073105;28;20037;-83
2023/06/18 03:46:33;;;;;;;18.98;12.35;;;14.90;99.90;;;;;;5056482;28;20029;-83
2023/06/18 03:48:59;;;;;;;23.63;21.23;;;14.90;99.90;;;;;;5056416;28;20036;-83
2023/06/18 03:51:26;;;;;;;17.83;12.35;;;14.90;99.90;;;;;;5056031;28;20548;-83
2023/06/18 03:53:51;;;;;;;24.02;21.42;;;14.90;99.90;;;;;;5056173;28;20036;-83
2023/06/18 03:56:18;;;;;;;26.70;24.00;;;15.00;99.90;;;;;;5072955;28;20044;-83
2023/06/18 03:58:44;;;;;;;21.42;15.25;;;15.10;99.90;;;;;;5056012;28;20072;-83
2023/06/18 04:01:10;;;;;;;21.73;12.38;;;15.10;99.90;;;;;;5072410;28;20074;-83
2023/06/18 04:03:36;;;;;;;23.90;16.55;;;15.10;99.90;;;;;;5072913;28;20058;-83
2023/06/18 04:06:03;;;;;;;23.33;21.13;;;15.10;99.90;;;;;;5072695;28;20554;-84
2023/06/18 04:08:28;;;;;;;21.00;18.98;;;15.10;99.90;;;;;;5056252;28;20440;-83
2023/06/18 04:10:55;;;;;;;17.15;11.63;;;15.20;99.90;;;;;;5072231;28;20037;-83
2023/06/18 04:13:22;;;;;;;21.80;13.48;;;15.10;99.90;;;;;;5072374;28;20048;-83
2023/06/18 04:15:48;;;;;;;27.70;25.00;;;15.10;99.90;;;;;;5055707;28;20072;-83
2023/06/18 04:18:14;;;;;;;23.65;16.95;;;15.20;99.90;;;;;;5072470;28;20044;-83
2023/06/18 04:20:40;;;;;;;26.70;16.75;;;15.20;99.90;;;;;;5055360;28;20036;-83
2023/06/18 04:23:06;;;;;;;27.98;18.92;;;15.30;99.90;;;;;;5072407;28;20037;-83
2023/06/18 04:25:32;;;;;;;31.42;27.95;;;15.40;99.90;;;;;;5072154;28;20044;-83
2023/06/18 04:27:58;;;;;;;33.15;29.65;;;15.50;99.90;;;;;;5072228;28;20075;-83
2023/06/18 04:30:24;;;;;;;34.85;31.10;;;15.70;99.90;;;;;;5071623;28;20066;-83
2023/06/18 04:32:50;;;;;;;34.55;30.95;;;15.80;99.90;;;;;;5055350;28;20032;-83
2023/06/18 04:35:16;;;;;;;29.50;19.17;;;15.90;99.90;;;;;;5072146;28;20095;-83
2023/06/18 04:37:41;;;;;;;35.80;32.10;;;15.90;99.90;;;;;;5072002;28;20059;-83
2023/06/18 04:40:08;;;;;;;30.33;18.80;;;16.00;99.90;;;;;;5071930;28;20078;-83
2023/06/18 04:42:35;;;;;;;35.55;31.90;;;16.10;99.90;;;;;;5055196;28;20045;-83
2023/06/18 04:45:00;;;;;;;31.08;19.00;;;16.10;99.90;;;;;;5071895;28;20055;-83
2023/06/18 04:47:26;;;;;;;36.35;31.30;;;16.20;99.90;;;;;;5071878;28;20409;-83
2023/06/18 04:49:52;;;;;;;36.53;32.80;;;16.20;99.90;;;;;;5071454;28;20037;-82
2023/06/18 04:52:17;;;;;;;37.88;23.52;;;16.30;99.90;;;;;;5071810;28;20037;-83
2023/06/18 04:54:44;;;;;;;38.30;34.13;;;16.30;99.90;;;;;;5071625;28;20123;-83
2023/06/18 04:57:09;;;;;;;40.10;35.92;;;16.40;99.90;;;;;;5054915;28;20057;-83
2023/06/18 04:59:37;;;;;;;39.00;34.75;;;16.50;99.90;;;;;;5071547;28;20048;-83
2023/06/18 05:02:03;;;;;;;39.92;34.70;;;16.50;99.90;;;;;;5071582;28;20070;-83
2023/06/18 05:04:29;;;;;;;37.80;33.75;;;16.60;99.90;;;;;;5071434;28;20047;-83
2023/06/18 05:06:55;;;;;;;38.92;34.85;;;16.70;99.90;;;;;;5055165;28;20128;-83
2023/06/18 05:09:22;;;;;;;37.75;33.70;;;16.70;99.90;;;;;;5071364;28;20029;-83
2023/06/18 05:11:47;;;;;;;30.85;19.98;;;16.80;99.90;;;;;;5070942;28;20040;-83
2023/06/18 05:14:13;;;;;;;37.47;33.47;;;16.80;99.90;;;;;;5071361;28;20041;-83
2023/06/18 05:16:39;;;;;;;36.95;33.05;;;16.80;99.90;;;;;;5071216;28;20095;-83
2023/06/18 05:19:04;;;;;;;38.35;34.25;;;16.90;99.90;;;;;;5071103;28;20056;-83
2023/06/18 05:21:30;;;;;;;31.83;22.83;;;17.00;99.90;;;;;;5070855;28;20068;-83
2023/06/18 05:23:55;;;;;;;36.60;32.83;;;17.00;99.90;;;;;;5071262;28;20043;-83
2023/06/18 05:26:21;;;;;;;38.60;34.55;;;17.00;99.90;;;;;;5071022;28;20040;-83
2023/06/18 05:28:48;;;;;;;37.33;33.58;;;17.10;99.90;;;;;;5071126;28;20032;-83
2023/06/18 05:31:13;;;;;;;38.33;34.40;;;17.20;99.90;;;;;;5070547;28;20039;-83
2023/06/18 05:33:40;;;;;;;40.92;36.67;;;17.30;99.90;;;;;;5054653;28;20044;-83
2023/06/18 05:36:05;;;;;;;38.25;34.30;;;17.40;99.90;;;;;;5071224;28;20033;-83
2023/06/18 05:38:31;;;;;;;38.72;34.65;;;17.40;99.90;;;;;;5054188;28;20090;-83
2023/06/18 05:40:57;;;;;;;38.80;34.83;;;17.50;99.90;;;;;;5053851;28;20045;-83
2023/06/18 05:43:22;;;;;;;39.83;35.70;;;17.60;99.90;;;;;;5070005;28;20037;-83
2023/06/18 05:45:48;;;;;;;37.83;33.80;;;17.60;99.90;;;;;;5054461;28;20131;-83
2023/06/18 05:48:14;;;;;;;38.80;34.90;;;17.70;99.90;;;;;;5070547;28;20383;-83
2023/06/18 05:50:41;;;;;;;32.50;24.38;;;17.80;99.90;;;;;;5070437;28;20045;-82
2023/06/18 05:53:07;;;;;;;36.47;32.80;;;17.80;99.90;;;;;;5068951;28;20059;-83
2023/06/18 05:55:33;;;;;;;37.17;33.25;;;17.90;99.90;;;;;;5052723;28;20032;-83
2023/06/18 05:57:59;;;;;;;39.35;35.08;;;18.00;99.90;;;;;;5068962;28;20516;-83
2023/06/18 06:00:26;;;;;;;36.53;32.65;;;18.10;99.90;;;;;;5050899;28;20055;-83
2023/06/18 06:02:52;;;;;;;37.90;34.00;;;18.10;99.90;;;;;;5052698;28;20047;-83
2023/06/18 06:05:18;;;;;;;35.08;31.42;;;18.20;99.90;;;;;;5069635;28;20045;-83
2023/06/18 06:07:43;;;;;;;35.90;32.10;;;18.30;99.90;;;;;;5069205;28;20041;-84
2023/06/18 06:10:11;;;;;;;36.53;32.63;;;18.40;99.90;;;;;;5051272;28;20036;-84
2023/06/18 06:12:37;;;;;;;36.13;32.40;;;18.50;99.90;;;;;;5049559;28;20086;-83
2023/06/18 06:15:04;;;;;;;35.88;32.13;;;18.60;99.90;;;;;;5050381;28;20041;-83
2023/06/18 06:17:30;;;;;;;36.03;32.15;;;18.70;99.90;;;;;;5052593;28;20033;-84
2023/06/18 06:19:55;;;;;;;33.03;29.52;;;18.80;99.90;;;;;;5069238;28;20079;-84
2023/06/18 06:22:21;;;;;;;33.15;29.73;;;18.90;99.90;;;;;;5069048;28;20040;-84
2023/06/18 06:24:46;;;;;;;34.20;30.52;;;18.90;99.90;;;;;;5069579;28;20406;-83
2023/06/18 06:27:12;;;;;;;32.70;29.30;;;19.00;99.90;;;;;;5069697;28;20109;-84
2023/06/18 06:29:38;;;;;;;33.40;29.88;;;19.10;99.90;;;;;;5052912;28;20103;-84
2023/06/18 06:32:04;;;;;;;31.50;28.27;;;19.20;99.90;;;;;;5070096;28;20036;-84
2023/06/18 06:34:30;;;;;;;32.53;29.13;;;19.30;99.90;;;;;;5053089;28;20079;-84
2023/06/18 06:36:55;;;;;;;30.70;27.60;;;19.40;99.90;;;;;;5069868;28;20072;-84
2023/06/18 06:39:21;;;;;;;29.83;26.73;;;19.50;99.90;;;;;;5069882;28;20406;-84
2023/06/18 06:41:46;;;;;;;31.05;27.77;;;19.60;99.90;;;;;;5069671;28;20410;-84
2023/06/18 06:44:12;;;;;;;29.55;26.45;;;19.70;99.90;;;;;;5052734;28;20512;-84
2023/06/18 06:46:38;;;;;;;30.38;27.17;;;19.80;99.90;;;;;;5069881;28;20103;-84
2023/06/18 06:49:07;;;;;;;30.10;26.90;;;19.90;99.90;;;;;;5052540;28;20039;-84
2023/06/18 06:51:33;;;;;;;30.20;27.13;;;20.00;99.90;;;;;;5068599;28;20052;-83
2023/06/18 06:53:59;;;;;;;29.75;26.67;;;20.10;99.90;;;;;;5071881;28;20473;-84
2023/06/18 06:56:25;;;;;;;28.45;25.58;;;20.20;99.90;;;;;;5056721;28;20552;-84
2023/06/18 06:58:52;;;;;;;28.55;25.65;;;20.30;99.90;;;;;;5056703;28;20095;-84
2023/06/18 07:01:19;;;;;;;27.48;24.67;;;20.40;99.90;;;;;;5056674;28;20044;-84
2023/06/18 07:03:45;;;;;;;27.88;24.98;;;20.50;99.90;;;;;;5056603;28;20123;-84
2023/06/18 07:06:11;;;;;;;28.92;25.20;;;20.60;99.90;;;;;;5073266;28;20462;-84
2023/06/18 07:08:36;;;;;;;25.17;22.58;;;20.70;99.90;;;;;;5073240;28;20081;-84
2023/06/18 07:11:02;;;;;;;27.83;24.38;;;20.80;99.90;;;;;;5056345;28;20124;-84
2023/06/18 07:13:28;;;;;;;26.52;23.75;;;20.90;99.90;;;;;;5072152;28;20028;-84
2023/06/18 07:15:53;;;;;;;26.13;23.38;;;21.00;99.90;;;;;;5056655;28;20040;-84
2023/06/18 07:18:19;;;;;;;26.10;23.25;;;21.10;99.90;;;;;;5056679;28;20104;-84
2023/06/18 07:20:44;;;;;;;26.67;22.85;;;21.20;99.90;;;;;;5056222;28;20481;-84
2023/06/18 07:23:10;;;;;;;24.08;21.65;;;21.30;99.90;;;;;;5056266;28;20766;-84
2023/06/18 07:25:35;;;;;;;23.83;21.30;;;21.40;99.90;;;;;;5055788;28;20040;-84
2023/06/18 07:28:01;;;;;;;22.95;20.65;;;21.50;99.90;;;;;;5056007;28;20086;-84
2023/06/18 07:30:27;;;;;;;23.45;20.95;;;21.60;99.90;;;;;;5055760;28;20127;-84
2023/06/18 07:32:52;;;;;;;24.20;21.67;;;21.70;99.90;;;;;;5072980;28;20387;-84
2023/06/18 07:35:18;;;;;;;23.80;21.13;;;21.80;99.90;;;;;;5072494;28;20099;-84
2023/06/18 07:37:43;;;;;;;24.52;22.02;;;21.90;99.90;;;;;;5072664;28;20098;-84
2023/06/18 07:40:10;;;;;;;25.02;21.73;;;21.90;99.90;;;;;;5072470;28;20041;-85
2023/06/18 07:42:36;;;;;;;24.45;21.83;;;22.00;99.90;;;;;;5072735;28;20036;-84
2023/06/18 07:45:01;;;;;;;23.73;21.23;;;22.10;99.90;;;;;;5072585;28;20058;-84
2023/06/18 07:47:27;;;;;;;22.63;20.23;;;22.20;99.90;;;;;;5072687;28;20045;-84
2023/06/18 07:49:52;;;;;;;22.02;19.67;;;22.30;99.90;;;;;;5072196;28;20047;-84
2023/06/18 07:52:18;;;;;;;21.40;19.15;;;22.40;99.90;;;;;;5055712;28;20032;-84
2023/06/18 07:54:43;;;;;;;23.33;20.85;;;22.50;99.90;;;;;;5055811;28;20103;-85
2023/06/18 07:57:09;;;;;;;20.92;18.70;;;22.60;99.90;;;;;;5072110;28;20075;-85
2023/06/18 07:59:35;;;;;;;21.42;18.73;;;22.60;99.90;;;;;;5068696;28;20406;-84
2023/06/18 08:02:01;;;;;;;22.40;19.10;;;22.70;99.90;;;;;;5036137;28;20079;-84
2023/06/18 08:04:26;;;;;;;21.40;18.05;;;22.80;99.90;;;;;;5035057;28;20483;-84
2023/06/18 08:06:52;;;;;;;21.08;18.70;;;23.00;99.90;;;;;;5035539;28;20070;-84
2023/06/18 08:09:18;;;;;;;19.83;16.60;;;23.10;99.90;;;;;;5052104;28;20410;-84
2023/06/18 08:11:44;;;;;;;18.17;16.23;;;23.20;99.90;;;;;;5035334;28;20029;-84
2023/06/18 08:14:10;;;;;;;15.88;14.18;;;23.30;99.90;;;;;;5052038;28;20036;-84
2023/06/18 08:16:37;;;;;;;17.63;15.73;;;23.40;99.90;;;;;;5052122;28;20530;-84
2023/06/18 08:19:03;;;;;;;16.60;14.82;;;23.40;99.90;;;;;;5051728;28;20103;-85
2023/06/18 08:21:28;;;;;;;21.58;15.88;;;23.50;99.90;;;;;;5051674;28;20049;-84
2023/06/18 08:23:54;;;;;;;18.67;14.65;;;23.60;99.90;;;;;;5051771;28;20425;-84
2023/06/18 08:26:22;;;;;;;16.63;14.57;;;23.70;99.40;;;;;;5068303;28;20102;-85
2023/06/18 08:28:47;;;;;;;16.27;13.52;;;23.70;98.10;;;;;;5051124;28;20041;-85
2023/06/18 08:31:13;;;;;;;19.85;13.57;;;23.80;96.80;;;;;;5050179;28;20116;-85
2023/06/18 08:33:39;;;;;;;15.38;12.10;;;23.90;95.80;;;;;;5051828;28;20373;-85
2023/06/18 08:36:04;;;;;;;13.68;11.93;;;24.00;94.40;;;;;;5052168;28;20535;-85
2023/06/18 08:38:30;;;;;;;13.95;11.60;;;24.20;94.80;;;;;;5034244;28;20041;-85
2023/06/18 08:41:00;;;;;;;17.48;12.00;;;24.20;94.20;;;;;;5053045;28;20051;-85
2023/06/18 08:43:27;;;;;;;16.58;11.70;;;24.40;94.00;;;;;;5052033;28;20048;-84
2023/06/18 08:45:53;;;;;;;14.15;10.55;;;24.50;93.40;;;;;;5035094;28;20041;-84
2023/06/18 08:48:27;;;;;;;12.30;9.30;;;24.60;90.40;;;;;;5068340;28;20064;-84
2023/06/18 08:51:02;;;;;;;12.38;8.70;;;24.70;84.10;;;;;;5052719;28;20041;-85
2023/06/18 08:53:44;;;;;;;12.65;9.80;;;24.70;81.80;;;;;;5035316;28;20040;-84
2023/06/18 08:56:12;;;;;;;12.70;9.60;;;24.80;83.10;;;;;;5035181;28;20084;-84
2023/06/18 08:58:43;;;;;;;12.35;8.90;;;24.80;84.90;;;;;;5035127;28;20490;-85
2023/06/18 09:01:09;;;;;;;20.25;8.60;;;25.00;85.70;;;;;;5051354;28;20032;-85
2023/06/18 09:03:37;;;;;;;13.82;8.50;;;25.00;78.90;;;;;;5051881;28;20060;-84
2023/06/18 09:06:03;;;;;;;12.10;8.55;;;25.10;78.60;;;;;;5051553;28;20064;-85
2023/06/18 09:08:30;;;;;;;12.38;8.48;;;25.20;79.20;;;;;;5051632;28;20094;-85
2023/06/18 09:10:58;;;;;;;11.30;8.48;;;25.30;79.50;;;;;;5067297;28;20059;-85
2023/06/18 09:13:23;;;;;;;12.50;8.18;;;25.40;77.70;;;;;;5071238;28;20047;-84
2023/06/18 09:15:49;;;;;;;11.27;8.23;;;25.50;77.60;;;;;;5071451;28;20032;-85
2023/06/18 09:18:15;;;;;;;12.48;8.10;;;25.60;75.70;;;;;;5070251;28;20072;-85
2023/06/18 09:20:41;;;;;;;10.60;7.72;;;25.60;76.20;;;;;;5071137;28;20098;-84
2023/06/18 09:23:10;;;;;;;13.45;8.23;;;25.70;75.20;;;;;;5054465;28;20052;-84
2023/06/18 09:25:36;;;;;;;11.82;8.15;;;25.80;72.40;;;;;;5054304;28;20032;-84
2023/06/18 09:28:03;;;;;;;10.40;7.78;;;25.90;71.80;;;;;;5070837;28;20040;-85
2023/06/18 09:30:29;;;;;;;13.20;8.38;;;25.90;71.00;;;;;;5054104;28;20036;-85
2023/06/18 09:32:57;;;;;;;12.05;8.07;;;25.90;71.30;;;;;;5054483;28;20064;-85
2023/06/18 09:35:23;;;;;;;11.93;7.95;;;26.00;70.90;;;;;;5070986;28;20452;-85
2023/06/18 09:37:49;;;;;;;12.13;7.68;;;26.10;71.30;;;;;;5052013;28;20406;-85
2023/06/18 09:40:19;;;;;;;11.77;7.80;;;26.20;70.90;;;;;;5071260;28;20498;-85
2023/06/18 09:42:46;;;;;;;12.40;8.45;;;26.30;70.40;;;;;;5053747;28;20033;-85
2023/06/18 09:45:13;;;;;;;11.95;8.18;;;26.40;69.90;;;;;;5053477;28;20541;-85
2023/06/18 09:47:41;;;;;;;11.23;7.07;;;26.40;69.40;;;;;;5053733;28;20032;-85
2023/06/18 09:50:09;;;;;;;11.82;7.70;;;26.60;68.90;;;;;;5069934;28;20494;-85
2023/06/18 09:52:47;;;;;;;12.43;8.35;;;26.70;67.40;;;;;;5053804;28;20128;-85
2023/06/18 09:55:26;;;;;;;9.88;7.00;;;26.80;68.20;;;;;;5053649;28;20040;-84
2023/06/18 09:57:52;;;;;;;11.15;7.30;;;26.90;66.10;;;;;;5053466;28;20040;-85
2023/06/18 10:00:19;;;;;;;14.48;7.40;;;27.00;65.10;;;;;;5053150;28;20410;-85
2023/06/18 10:02:44;;;;;;;11.60;7.10;;;27.00;65.20;;;;;;5070080;28;20040;-85
2023/06/18 10:05:10;;;;;;;10.27;7.25;;;27.10;63.90;;;;;;5069914;28;20414;-85
2023/06/18 10:07:40;;;;;;;11.02;7.80;;;27.20;63.30;;;;;;5053463;28;20075;-85
2023/06/18 10:10:09;;;;;;;9.88;7.35;;;27.20;62.50;;;;;;5070139;28;20039;-85
2023/06/18 10:12:36;;;;;;;12.23;7.30;;;27.30;62.80;;;;;;5053360;28;20105;-85
2023/06/18 10:15:03;;;;;;;11.52;7.30;;;27.40;63.90;;;;;;5070044;28;20079;-85
2023/06/18 10:17:34;;;;;;;9.90;7.07;;;27.50;63.00;;;;;;5070027;28;20044;-85
2023/06/18 10:20:04;;;;;;;10.15;7.20;;;27.60;63.20;;;;;;5052757;28;20044;-85
2023/06/18 10:22:49;;;;;;;11.32;7.68;;;27.60;62.90;;;;;;5069858;28;20460;-85
2023/06/18 10:25:15;;;;;;;11.98;7.22;;;27.70;63.00;;;;;;5052322;28;20098;-85
2023/06/18 10:27:41;;;;;;;12.45;7.20;;;27.70;61.30;;;;;;5054143;28;20455;-85
2023/06/18 10:30:08;;;;;;;9.90;7.03;;;27.90;62.10;;;;;;5076317;28;20041;-85
2023/06/18 10:32:35;;;;;;;10.38;6.72;;;28.00;61.60;;;;;;5076320;28;20065;-85
2023/06/18 10:35:05;;;;;;;10.52;7.15;;;28.10;62.90;;;;;;5076471;28;20052;-85
2023/06/18 10:37:31;;;;;;;10.35;7.75;;;28.20;62.80;;;;;;5076303;28;20731;-85
2023/06/18 10:39:57;;;;;;;9.85;7.32;;;28.20;62.20;;;;;;5059647;28;20044;-85
2023/06/18 10:42:23;;;;;;;9.82;6.80;;;28.20;61.10;;;;;;5059450;28;20055;-85
2023/06/18 10:44:57;;;;;;;11.40;7.65;;;28.20;60.70;;;;;;5076273;28;20041;-85
2023/06/18 10:47:30;;;;;;;9.52;6.63;;;28.20;58.60;;;;;;5059753;28;20066;-85
2023/06/18 10:50:08;;;;;;;10.75;7.03;;;28.20;58.70;;;;;;5059424;28;20513;-86
2023/06/18 10:52:39;;;;;;;10.18;7.03;;;28.10;59.30;;;;;;5076260;28;20041;-86
2023/06/18 10:55:08;;;;;;;13.27;6.80;;;28.10;60.10;;;;;;5076421;28;20044;-85
2023/06/18 10:57:38;;;;;;;10.73;7.00;;;28.10;58.60;;;;;;5077144;28;20130;-85
2023/06/18 11:00:13;;;;;;;9.95;7.35;;;28.00;57.40;;;;;;5076196;28;20123;-85
2023/06/18 11:02:39;;;;;;;9.73;6.80;;;28.00;58.00;;;;;;5059602;28;20048;-86
2023/06/18 11:05:05;;;;;;;9.52;6.50;;;28.00;58.90;;;;;;5059730;28;20047;-85
2023/06/18 11:07:31;;;;;;;9.38;6.57;;;28.10;58.60;;;;;;5059676;28;20086;-86
2023/06/18 11:10:00;;;;;;;12.63;7.63;;;28.00;57.50;;;;;;5059215;28;20036;-85
2023/06/18 11:12:29;;;;;;;11.68;6.85;;;28.00;57.80;;;;;;5076348;28;20040;-85
2023/06/18 11:15:20;;;;;;;12.20;7.35;;;28.00;58.60;;;;;;5076286;28;20486;-86
2023/06/18 11:17:49;;;;;;;10.73;6.90;;;28.10;59.40;;;;;;5075991;28;20050;-85
2023/06/18 11:20:16;;;;;;;9.60;6.20;;;28.10;59.40;;;;;;5058781;28;20036;-85
2023/06/18 11:22:42;;;;;;;9.68;6.20;;;28.20;59.70;;;;;;5076233;28;20098;-85
2023/06/18 11:25:10;;;;;;;13.55;6.85;;;28.10;58.90;;;;;;5076059;28;20045;-85
2023/06/18 11:27:40;;;;;;;11.75;6.53;;;28.20;57.10;;;;;;5059369;28;20058;-85
2023/06/18 11:30:12;;;;;;;11.35;6.68;;;28.20;57.40;;;;;;5059150;28;20119;-86
2023/06/18 11:32:40;;;;;;;10.05;6.75;;;28.20;56.80;;;;;;5059543;28;20121;-86
2023/06/18 11:35:10;;;;;;;10.63;6.30;;;28.20;57.70;;;;;;5059551;28;20509;-85
2023/06/18 11:37:38;;;;;;;8.60;6.40;;;28.30;57.90;;;;;;5058955;28;20044;-86
2023/06/18 11:40:07;;;;;;;10.73;6.85;;;28.40;56.80;;;;;;5073242;28;20041;-86
2023/06/18 11:42:34;;;;;;;10.00;6.60;;;28.50;57.00;;;;;;5072703;28;20040;-86
2023/06/18 11:45:05;;;;;;;10.52;6.93;;;28.50;55.40;;;;;;5055981;28;20124;-86
2023/06/18 11:47:33;;;;;;;12.00;6.90;;;28.60;56.70;;;;;;5072529;28;20043;-85
2023/06/18 11:49:59;;;;;;;10.02;7.70;;;28.70;56.10;;;;;;5072699;28;20036;-86
2023/06/18 11:52:26;;;;;;;10.82;7.03;;;28.80;55.40;;;;;;5072393;28;20033;-85
2023/06/18 11:54:56;;;;;;;10.95;6.85;;;28.80;55.80;;;;;;5072762;28;20044;-86
2023/06/18 11:57:23;;;;;;;9.32;6.63;;;28.80;55.40;;;;;;5055747;28;20162;-86
2023/06/18 11:59:53;;;;;;;9.32;6.72;;;28.80;54.30;;;;;;5055456;28;20044;-85
2023/06/18 12:02:24;;;;;;;10.13;6.65;;;28.80;53.80;;;;;;5072386;28;20127;-86
2023/06/18 12:04:51;;;;;;;12.33;6.70;;;28.90;54.70;;;;;;5072272;28;20502;-86
2023/06/18 12:07:24;;;;;;;10.90;6.50;;;28.90;54.60;;;;;;5055266;28;20315;-86
2023/06/18 12:09:53;;;;;;;9.50;6.68;;;28.90;54.70;;;;;;5072079;28;20047;-86
2023/06/18 12:12:41;;;;;;;8.90;6.57;;;28.90;54.90;;;;;;5055550;28;20112;-86
2023/06/18 12:15:21;;;;;;;11.32;6.88;;;29.00;54.30;;;;;;5055558;28;20502;-86
2023/06/18 12:17:49;;;;;;;10.20;6.90;;;29.00;55.20;;;;;;5071396;28;20036;-85
2023/06/18 12:20:19;;;;;;;10.38;6.45;;;29.00;54.60;;;;;;5071398;28;20502;-85
2023/06/18 12:22:45;;;;;;;10.80;6.65;;;29.10;53.50;;;;;;5071289;28;20048;-85
2023/06/18 12:25:11;;;;;;;11.02;6.63;;;29.10;53.00;;;;;;5071958;28;20773;-86
2023/06/18 12:27:39;;;;;;;10.52;6.38;;;29.20;52.60;;;;;;5071505;28;20075;-85
2023/06/18 12:30:05;;;;;;;9.93;7.03;;;29.20;52.80;;;;;;5071545;28;20037;-85